sensor_id;sensor_type;location;lat;lon;timestamp;P1;durP1;ratioP1;P2;durP2;ratioP2
7807;SDS011;3949;49.254;8.894;2023-02-02T00:01:43;9.53;;;2.80;;
7807;SDS011;3949;49.254;8.894;2023-02-02T00:04:14;9.63;;;3.57;;
7807;SDS011;3949;49.254;8.894;2023-02-02T00:06:40;10.20;;;3.17;;
7807;SDS011;3949;49.254;8.894;2023-02-02T00:09:06;9.57;;;3.13;;
7807;SDS011;3949;49.254;8.894;2023-02-02T00:11:32;8.30;;;3.93;;
7807;SDS011;3949;49.254;8.894;2023-02-02T00:13:58;7.33;;;3.60;;
7807;SDS011;3949;49.254;8.894;2023-02-02T00:18:54;8.77;;;3.27;;
7807;SDS011;3949;49.254;8.894;2023-02-02T00:21:20;10.40;;;3.70;;
7807;SDS011;3949;49.254;8.894;2023-02-02T00:23:46;7.63;;;3.40;;
7807;SDS011;3949;49.254;8.894;2023-02-02T00:26:12;11.47;;;3.10;;
7807;SDS011;3949;49.254;8.894;2023-02-02T00:28:39;7.57;;;3.27;;
7807;SDS011;3949;49.254;8.894;2023-02-02T00:31:05;9.40;;;3.47;;
7807;SDS011;3949;49.254;8.894;2023-02-02T00:33:31;7.43;;;2.87;;
7807;SDS011;3949;49.254;8.894;2023-02-02T00:35:57;10.00;;;3.03;;
7807;SDS011;3949;49.254;8.894;2023-02-02T00:38:23;7.80;;;3.40;;
7807;SDS011;3949;49.254;8.894;2023-02-02T00:40:49;9.23;;;3.30;;
7807;SDS011;3949;49.254;8.894;2023-02-02T00:43:14;7.77;;;3.00;;
7807;SDS011;3949;49.254;8.894;2023-02-02T00:45:40;11.17;;;3.70;;
7807;SDS011;3949;49.254;8.894;2023-02-02T00:48:06;7.77;;;3.23;;
7807;SDS011;3949;49.254;8.894;2023-02-02T00:50:34;10.40;;;3.70;;
7807;SDS011;3949;49.254;8.894;2023-02-02T00:53:01;10.67;;;2.93;;
7807;SDS011;3949;49.254;8.894;2023-02-02T00:55:27;11.30;;;3.40;;
7807;SDS011;3949;49.254;8.894;2023-02-02T00:57:53;5.87;;;2.80;;
7807;SDS011;3949;49.254;8.894;2023-02-02T01:00:20;9.33;;;3.20;;
7807;SDS011;3949;49.254;8.894;2023-02-02T01:02:47;10.00;;;3.10;;
7807;SDS011;3949;49.254;8.894;2023-02-02T01:05:14;7.73;;;2.90;;
7807;SDS011;3949;49.254;8.894;2023-02-02T01:07:40;13.07;;;3.83;;
7807;SDS011;3949;49.254;8.894;2023-02-02T01:10:08;9.83;;;3.40;;
7807;SDS011;3949;49.254;8.894;2023-02-02T01:12:35;11.90;;;3.30;;
7807;SDS011;3949;49.254;8.894;2023-02-02T01:15:01;5.07;;;2.77;;
7807;SDS011;3949;49.254;8.894;2023-02-02T01:17:27;8.03;;;3.53;;
7807;SDS011;3949;49.254;8.894;2023-02-02T01:19:53;9.93;;;3.10;;
7807;SDS011;3949;49.254;8.894;2023-02-02T01:22:19;11.27;;;3.67;;
7807;SDS011;3949;49.254;8.894;2023-02-02T01:24:45;12.83;;;3.43;;
7807;SDS011;3949;49.254;8.894;2023-02-02T01:27:11;12.10;;;3.60;;
7807;SDS011;3949;49.254;8.894;2023-02-02T01:29:37;9.00;;;3.57;;
7807;SDS011;3949;49.254;8.894;2023-02-02T01:32:03;14.03;;;3.37;;
7807;SDS011;3949;49.254;8.894;2023-02-02T01:34:29;11.00;;;3.30;;
7807;SDS011;3949;49.254;8.894;2023-02-02T01:36:55;12.33;;;3.50;;
7807;SDS011;3949;49.254;8.894;2023-02-02T01:39:21;11.63;;;3.70;;
7807;SDS011;3949;49.254;8.894;2023-02-02T01:41:47;9.97;;;4.27;;
7807;SDS011;3949;49.254;8.894;2023-02-02T01:46:58;11.20;;;4.10;;
7807;SDS011;3949;49.254;8.894;2023-02-02T01:49:24;9.70;;;3.30;;
7807;SDS011;3949;49.254;8.894;2023-02-02T01:51:54;8.10;;;3.33;;
7807;SDS011;3949;49.254;8.894;2023-02-02T01:54:26;10.87;;;3.77;;
7807;SDS011;3949;49.254;8.894;2023-02-02T01:56:55;9.53;;;3.53;;
7807;SDS011;3949;49.254;8.894;2023-02-02T01:59:22;11.00;;;3.90;;
7807;SDS011;3949;49.254;8.894;2023-02-02T02:01:48;13.33;;;3.90;;
7807;SDS011;3949;49.254;8.894;2023-02-02T02:04:15;9.87;;;3.23;;
7807;SDS011;3949;49.254;8.894;2023-02-02T02:06:41;8.77;;;3.73;;
7807;SDS011;3949;49.254;8.894;2023-02-02T02:09:09;8.93;;;3.30;;
7807;SDS011;3949;49.254;8.894;2023-02-02T02:11:35;9.00;;;3.53;;
7807;SDS011;3949;49.254;8.894;2023-02-02T02:14:02;10.37;;;3.50;;
7807;SDS011;3949;49.254;8.894;2023-02-02T02:22:45;9.57;;;3.30;;
7807;SDS011;3949;49.254;8.894;2023-02-02T02:25:43;8.30;;;3.83;;
7807;SDS011;3949;49.254;8.894;2023-02-02T02:34:00;8.03;;;3.33;;
7807;SDS011;3949;49.254;8.894;2023-02-02T02:37:05;9.77;;;4.13;;
7807;SDS011;3949;49.254;8.894;2023-02-02T02:39:36;10.53;;;3.73;;
7807;SDS011;3949;49.254;8.894;2023-02-02T02:42:06;9.40;;;3.40;;
7807;SDS011;3949;49.254;8.894;2023-02-02T02:44:34;13.07;;;3.50;;
7807;SDS011;3949;49.254;8.894;2023-02-02T02:47:01;7.20;;;3.23;;
7807;SDS011;3949;49.254;8.894;2023-02-02T02:49:27;12.10;;;3.73;;
7807;SDS011;3949;49.254;8.894;2023-02-02T02:51:53;9.07;;;3.63;;
7807;SDS011;3949;49.254;8.894;2023-02-02T02:54:21;12.20;;;4.03;;
7807;SDS011;3949;49.254;8.894;2023-02-02T02:59:27;12.53;;;4.27;;
7807;SDS011;3949;49.254;8.894;2023-02-02T03:04:38;11.13;;;3.07;;
7807;SDS011;3949;49.254;8.894;2023-02-02T03:07:20;10.50;;;3.90;;
7807;SDS011;3949;49.254;8.894;2023-02-02T03:09:48;10.63;;;3.40;;
7807;SDS011;3949;49.254;8.894;2023-02-02T03:12:16;9.53;;;3.90;;
7807;SDS011;3949;49.254;8.894;2023-02-02T03:14:42;7.90;;;3.13;;
7807;SDS011;3949;49.254;8.894;2023-02-02T03:17:08;8.40;;;3.50;;
7807;SDS011;3949;49.254;8.894;2023-02-02T03:19:34;10.73;;;3.57;;
7807;SDS011;3949;49.254;8.894;2023-02-02T03:22:00;8.07;;;3.30;;
7807;SDS011;3949;49.254;8.894;2023-02-02T03:24:27;10.17;;;3.37;;
7807;SDS011;3949;49.254;8.894;2023-02-02T03:26:53;14.33;;;3.80;;
7807;SDS011;3949;49.254;8.894;2023-02-02T03:29:19;7.40;;;3.20;;
7807;SDS011;3949;49.254;8.894;2023-02-02T03:31:45;8.03;;;2.80;;
7807;SDS011;3949;49.254;8.894;2023-02-02T03:34:11;7.90;;;3.00;;
7807;SDS011;3949;49.254;8.894;2023-02-02T03:36:37;11.23;;;3.43;;
7807;SDS011;3949;49.254;8.894;2023-02-02T03:39:03;10.87;;;4.40;;
7807;SDS011;3949;49.254;8.894;2023-02-02T03:41:29;8.43;;;3.67;;
7807;SDS011;3949;49.254;8.894;2023-02-02T03:43:55;11.67;;;3.63;;
7807;SDS011;3949;49.254;8.894;2023-02-02T03:46:21;11.23;;;3.60;;
7807;SDS011;3949;49.254;8.894;2023-02-02T03:48:47;8.70;;;2.97;;
7807;SDS011;3949;49.254;8.894;2023-02-02T03:51:13;6.00;;;3.30;;
7807;SDS011;3949;49.254;8.894;2023-02-02T03:53:40;7.53;;;3.17;;
7807;SDS011;3949;49.254;8.894;2023-02-02T03:56:11;8.63;;;3.47;;
7807;SDS011;3949;49.254;8.894;2023-02-02T03:58:37;9.03;;;3.67;;
7807;SDS011;3949;49.254;8.894;2023-02-02T04:01:03;11.40;;;3.93;;
7807;SDS011;3949;49.254;8.894;2023-02-02T04:03:30;16.00;;;5.60;;
7807;SDS011;3949;49.254;8.894;2023-02-02T04:05:56;12.73;;;4.10;;
7807;SDS011;3949;49.254;8.894;2023-02-02T04:08:22;11.97;;;3.70;;
7807;SDS011;3949;49.254;8.894;2023-02-02T04:10:48;12.33;;;4.23;;
7807;SDS011;3949;49.254;8.894;2023-02-02T04:13:14;9.97;;;4.03;;
7807;SDS011;3949;49.254;8.894;2023-02-02T04:15:40;10.20;;;4.60;;
7807;SDS011;3949;49.254;8.894;2023-02-02T04:18:06;10.13;;;3.80;;
7807;SDS011;3949;49.254;8.894;2023-02-02T04:20:32;8.20;;;3.23;;
7807;SDS011;3949;49.254;8.894;2023-02-02T04:22:58;15.13;;;4.30;;
7807;SDS011;3949;49.254;8.894;2023-02-02T04:25:24;9.67;;;3.53;;
7807;SDS011;3949;49.254;8.894;2023-02-02T04:27:50;9.67;;;3.53;;
7807;SDS011;3949;49.254;8.894;2023-02-02T04:30:16;10.33;;;3.80;;
7807;SDS011;3949;49.254;8.894;2023-02-02T04:32:43;9.63;;;3.73;;
7807;SDS011;3949;49.254;8.894;2023-02-02T04:35:09;11.53;;;3.83;;
7807;SDS011;3949;49.254;8.894;2023-02-02T04:37:35;15.93;;;3.63;;
7807;SDS011;3949;49.254;8.894;2023-02-02T04:40:01;7.73;;;3.17;;
7807;SDS011;3949;49.254;8.894;2023-02-02T04:42:27;10.27;;;3.53;;
7807;SDS011;3949;49.254;8.894;2023-02-02T04:44:56;9.37;;;3.60;;
7807;SDS011;3949;49.254;8.894;2023-02-02T04:47:22;11.60;;;3.87;;
7807;SDS011;3949;49.254;8.894;2023-02-02T04:49:48;10.97;;;3.63;;
7807;SDS011;3949;49.254;8.894;2023-02-02T04:52:14;10.23;;;3.70;;
7807;SDS011;3949;49.254;8.894;2023-02-02T04:54:40;11.67;;;3.90;;
7807;SDS011;3949;49.254;8.894;2023-02-02T04:57:06;9.77;;;4.03;;
7807;SDS011;3949;49.254;8.894;2023-02-02T04:59:32;10.93;;;3.67;;
7807;SDS011;3949;49.254;8.894;2023-02-02T05:01:58;9.50;;;3.53;;
7807;SDS011;3949;49.254;8.894;2023-02-02T05:04:24;9.90;;;3.73;;
7807;SDS011;3949;49.254;8.894;2023-02-02T05:06:51;7.63;;;3.20;;
7807;SDS011;3949;49.254;8.894;2023-02-02T05:09:17;11.53;;;3.97;;
7807;SDS011;3949;49.254;8.894;2023-02-02T05:11:43;11.73;;;3.97;;
7807;SDS011;3949;49.254;8.894;2023-02-02T05:14:09;8.20;;;3.13;;
7807;SDS011;3949;49.254;8.894;2023-02-02T05:16:35;8.73;;;3.57;;
7807;SDS011;3949;49.254;8.894;2023-02-02T05:19:01;8.83;;;3.77;;
7807;SDS011;3949;49.254;8.894;2023-02-02T05:21:27;10.30;;;3.63;;
7807;SDS011;3949;49.254;8.894;2023-02-02T05:23:53;9.30;;;3.50;;
7807;SDS011;3949;49.254;8.894;2023-02-02T05:26:21;17.20;;;3.40;;
7807;SDS011;3949;49.254;8.894;2023-02-02T05:28:47;11.17;;;3.83;;
7807;SDS011;3949;49.254;8.894;2023-02-02T05:31:13;11.23;;;3.43;;
7807;SDS011;3949;49.254;8.894;2023-02-02T05:33:39;11.83;;;3.63;;
7807;SDS011;3949;49.254;8.894;2023-02-02T05:36:05;11.23;;;3.67;;
7807;SDS011;3949;49.254;8.894;2023-02-02T05:38:32;10.27;;;3.37;;
7807;SDS011;3949;49.254;8.894;2023-02-02T05:40:58;13.00;;;3.53;;
7807;SDS011;3949;49.254;8.894;2023-02-02T05:43:25;9.90;;;3.77;;
7807;SDS011;3949;49.254;8.894;2023-02-02T05:45:51;7.53;;;2.93;;
7807;SDS011;3949;49.254;8.894;2023-02-02T05:48:17;13.43;;;4.30;;
7807;SDS011;3949;49.254;8.894;2023-02-02T05:50:43;12.03;;;3.70;;
7807;SDS011;3949;49.254;8.894;2023-02-02T05:53:11;7.87;;;3.60;;
7807;SDS011;3949;49.254;8.894;2023-02-02T05:55:38;8.33;;;3.60;;
7807;SDS011;3949;49.254;8.894;2023-02-02T05:58:04;15.83;;;4.40;;
7807;SDS011;3949;49.254;8.894;2023-02-02T06:00:30;12.07;;;3.57;;
7807;SDS011;3949;49.254;8.894;2023-02-02T06:02:56;7.80;;;3.93;;
7807;SDS011;3949;49.254;8.894;2023-02-02T06:05:22;14.63;;;3.73;;
7807;SDS011;3949;49.254;8.894;2023-02-02T06:07:49;11.97;;;3.97;;
7807;SDS011;3949;49.254;8.894;2023-02-02T06:10:15;10.47;;;3.63;;
7807;SDS011;3949;49.254;8.894;2023-02-02T06:12:41;9.63;;;3.23;;
7807;SDS011;3949;49.254;8.894;2023-02-02T06:15:08;10.70;;;3.93;;
7807;SDS011;3949;49.254;8.894;2023-02-02T06:17:34;10.03;;;4.03;;
7807;SDS011;3949;49.254;8.894;2023-02-02T06:20:00;10.67;;;3.73;;
7807;SDS011;3949;49.254;8.894;2023-02-02T06:22:26;12.70;;;3.80;;
7807;SDS011;3949;49.254;8.894;2023-02-02T06:24:54;12.77;;;3.50;;
7807;SDS011;3949;49.254;8.894;2023-02-02T06:27:20;10.97;;;3.60;;
7807;SDS011;3949;49.254;8.894;2023-02-02T06:29:46;11.00;;;3.87;;
7807;SDS011;3949;49.254;8.894;2023-02-02T06:32:12;12.30;;;3.73;;
7807;SDS011;3949;49.254;8.894;2023-02-02T06:34:38;9.97;;;3.07;;
7807;SDS011;3949;49.254;8.894;2023-02-02T06:37:04;13.63;;;4.17;;
7807;SDS011;3949;49.254;8.894;2023-02-02T06:39:30;12.47;;;3.60;;
7807;SDS011;3949;49.254;8.894;2023-02-02T06:41:56;11.13;;;3.37;;
7807;SDS011;3949;49.254;8.894;2023-02-02T06:44:22;10.57;;;3.63;;
7807;SDS011;3949;49.254;8.894;2023-02-02T06:46:48;8.30;;;3.23;;
7807;SDS011;3949;49.254;8.894;2023-02-02T06:49:14;12.70;;;3.23;;
7807;SDS011;3949;49.254;8.894;2023-02-02T06:51:39;7.93;;;3.23;;
7807;SDS011;3949;49.254;8.894;2023-02-02T06:54:05;10.77;;;3.50;;
7807;SDS011;3949;49.254;8.894;2023-02-02T06:56:31;11.03;;;3.33;;
7807;SDS011;3949;49.254;8.894;2023-02-02T06:58:57;7.27;;;3.60;;
7807;SDS011;3949;49.254;8.894;2023-02-02T07:01:24;8.23;;;3.47;;
7807;SDS011;3949;49.254;8.894;2023-02-02T07:03:50;8.37;;;3.43;;
7807;SDS011;3949;49.254;8.894;2023-02-02T07:06:17;12.37;;;4.70;;
7807;SDS011;3949;49.254;8.894;2023-02-02T07:08:43;7.53;;;3.10;;
7807;SDS011;3949;49.254;8.894;2023-02-02T07:11:10;9.87;;;3.97;;
7807;SDS011;3949;49.254;8.894;2023-02-02T07:13:36;6.83;;;3.20;;
7807;SDS011;3949;49.254;8.894;2023-02-02T07:16:03;12.10;;;3.33;;
7807;SDS011;3949;49.254;8.894;2023-02-02T07:18:29;11.40;;;3.40;;
7807;SDS011;3949;49.254;8.894;2023-02-02T07:20:57;11.43;;;3.53;;
7807;SDS011;3949;49.254;8.894;2023-02-02T07:23:24;11.07;;;3.60;;
7807;SDS011;3949;49.254;8.894;2023-02-02T07:25:58;9.03;;;3.70;;
7807;SDS011;3949;49.254;8.894;2023-02-02T07:28:25;7.87;;;3.10;;
7807;SDS011;3949;49.254;8.894;2023-02-02T07:30:51;9.60;;;3.50;;
7807;SDS011;3949;49.254;8.894;2023-02-02T07:33:17;13.43;;;4.07;;
7807;SDS011;3949;49.254;8.894;2023-02-02T07:35:43;8.70;;;3.13;;
7807;SDS011;3949;49.254;8.894;2023-02-02T07:38:09;10.10;;;3.50;;
7807;SDS011;3949;49.254;8.894;2023-02-02T07:40:35;10.37;;;3.30;;
7807;SDS011;3949;49.254;8.894;2023-02-02T07:43:01;9.30;;;3.50;;
7807;SDS011;3949;49.254;8.894;2023-02-02T07:45:30;12.10;;;3.53;;
7807;SDS011;3949;49.254;8.894;2023-02-02T07:47:57;11.83;;;3.37;;
7807;SDS011;3949;49.254;8.894;2023-02-02T07:50:23;10.83;;;3.50;;
7807;SDS011;3949;49.254;8.894;2023-02-02T07:52:50;10.80;;;3.90;;
7807;SDS011;3949;49.254;8.894;2023-02-02T07:55:16;9.17;;;3.80;;
7807;SDS011;3949;49.254;8.894;2023-02-02T07:57:42;8.50;;;3.57;;
7807;SDS011;3949;49.254;8.894;2023-02-02T08:00:08;9.63;;;3.60;;
7807;SDS011;3949;49.254;8.894;2023-02-02T08:02:34;9.97;;;3.27;;
7807;SDS011;3949;49.254;8.894;2023-02-02T08:05:00;11.20;;;3.63;;
7807;SDS011;3949;49.254;8.894;2023-02-02T08:07:26;9.30;;;3.57;;
7807;SDS011;3949;49.254;8.894;2023-02-02T08:09:53;7.33;;;2.93;;
7807;SDS011;3949;49.254;8.894;2023-02-02T08:12:19;9.27;;;3.47;;
7807;SDS011;3949;49.254;8.894;2023-02-02T08:14:47;10.97;;;3.53;;
7807;SDS011;3949;49.254;8.894;2023-02-02T08:17:13;10.73;;;4.00;;
7807;SDS011;3949;49.254;8.894;2023-02-02T08:19:39;12.63;;;3.80;;
7807;SDS011;3949;49.254;8.894;2023-02-02T08:22:05;7.87;;;3.30;;
7807;SDS011;3949;49.254;8.894;2023-02-02T08:24:31;8.63;;;3.63;;
7807;SDS011;3949;49.254;8.894;2023-02-02T08:26:57;10.00;;;3.07;;
7807;SDS011;3949;49.254;8.894;2023-02-02T08:29:23;10.50;;;4.00;;
7807;SDS011;3949;49.254;8.894;2023-02-02T08:31:49;9.30;;;3.80;;
7807;SDS011;3949;49.254;8.894;2023-02-02T08:34:15;10.73;;;3.77;;
7807;SDS011;3949;49.254;8.894;2023-02-02T08:36:41;12.20;;;3.37;;
7807;SDS011;3949;49.254;8.894;2023-02-02T08:39:09;13.67;;;3.50;;
7807;SDS011;3949;49.254;8.894;2023-02-02T08:41:36;11.10;;;4.03;;
7807;SDS011;3949;49.254;8.894;2023-02-02T08:44:06;11.43;;;4.00;;
7807;SDS011;3949;49.254;8.894;2023-02-02T08:46:32;12.13;;;4.23;;
7807;SDS011;3949;49.254;8.894;2023-02-02T08:48:58;14.10;;;3.87;;
7807;SDS011;3949;49.254;8.894;2023-02-02T08:51:24;10.20;;;3.47;;
7807;SDS011;3949;49.254;8.894;2023-02-02T08:53:50;13.77;;;3.77;;
7807;SDS011;3949;49.254;8.894;2023-02-02T08:56:17;14.67;;;4.20;;
7807;SDS011;3949;49.254;8.894;2023-02-02T08:58:44;8.43;;;3.30;;
7807;SDS011;3949;49.254;8.894;2023-02-02T09:01:11;8.60;;;3.20;;
7807;SDS011;3949;49.254;8.894;2023-02-02T09:03:38;7.07;;;3.60;;
7807;SDS011;3949;49.254;8.894;2023-02-02T09:06:08;12.40;;;4.23;;
7807;SDS011;3949;49.254;8.894;2023-02-02T09:08:35;11.17;;;3.50;;
7807;SDS011;3949;49.254;8.894;2023-02-02T09:11:02;8.67;;;3.57;;
7807;SDS011;3949;49.254;8.894;2023-02-02T09:13:28;10.33;;;3.70;;
7807;SDS011;3949;49.254;8.894;2023-02-02T09:15:57;10.33;;;3.40;;
7807;SDS011;3949;49.254;8.894;2023-02-02T09:18:23;6.77;;;2.70;;
7807;SDS011;3949;49.254;8.894;2023-02-02T09:20:49;10.90;;;3.50;;
7807;SDS011;3949;49.254;8.894;2023-02-02T09:23:15;13.33;;;3.70;;
7807;SDS011;3949;49.254;8.894;2023-02-02T09:25:41;7.57;;;3.10;;
7807;SDS011;3949;49.254;8.894;2023-02-02T09:28:07;10.13;;;3.37;;
7807;SDS011;3949;49.254;8.894;2023-02-02T09:30:33;12.07;;;3.97;;
7807;SDS011;3949;49.254;8.894;2023-02-02T09:32:59;8.23;;;3.30;;
7807;SDS011;3949;49.254;8.894;2023-02-02T09:35:25;8.83;;;3.00;;
7807;SDS011;3949;49.254;8.894;2023-02-02T09:37:51;6.37;;;3.07;;
7807;SDS011;3949;49.254;8.894;2023-02-02T09:40:17;8.40;;;2.97;;
7807;SDS011;3949;49.254;8.894;2023-02-02T09:45:38;11.87;;;2.90;;
7807;SDS011;3949;49.254;8.894;2023-02-02T09:50:40;6.90;;;3.00;;
7807;SDS011;3949;49.254;8.894;2023-02-02T09:53:12;7.70;;;2.90;;
7807;SDS011;3949;49.254;8.894;2023-02-02T09:55:39;7.17;;;3.30;;
7807;SDS011;3949;49.254;8.894;2023-02-02T10:00:33;9.13;;;3.40;;
7807;SDS011;3949;49.254;8.894;2023-02-02T10:03:00;9.40;;;3.37;;
7807;SDS011;3949;49.254;8.894;2023-02-02T10:05:28;8.53;;;3.10;;
7807;SDS011;3949;49.254;8.894;2023-02-02T10:07:57;8.10;;;3.00;;
7807;SDS011;3949;49.254;8.894;2023-02-02T10:10:26;10.07;;;2.83;;
7807;SDS011;3949;49.254;8.894;2023-02-02T10:17:51;8.37;;;2.70;;
7807;SDS011;3949;49.254;8.894;2023-02-02T10:28:40;10.73;;;3.87;;
7807;SDS011;3949;49.254;8.894;2023-02-02T10:31:09;7.43;;;2.97;;
7807;SDS011;3949;49.254;8.894;2023-02-02T10:33:38;7.70;;;2.70;;
7807;SDS011;3949;49.254;8.894;2023-02-02T10:46:16;9.97;;;3.07;;
7807;SDS011;3949;49.254;8.894;2023-02-02T10:48:45;9.07;;;3.27;;
7807;SDS011;3949;49.254;8.894;2023-02-02T10:51:17;10.30;;;3.50;;
7807;SDS011;3949;49.254;8.894;2023-02-02T10:53:47;10.10;;;2.70;;
7807;SDS011;3949;49.254;8.894;2023-02-02T10:56:15;10.30;;;3.30;;
7807;SDS011;3949;49.254;8.894;2023-02-02T10:58:47;8.03;;;3.03;;
7807;SDS011;3949;49.254;8.894;2023-02-02T11:01:14;11.00;;;3.10;;
7807;SDS011;3949;49.254;8.894;2023-02-02T11:03:42;11.70;;;3.87;;
7807;SDS011;3949;49.254;8.894;2023-02-02T11:06:09;9.53;;;3.07;;
7807;SDS011;3949;49.254;8.894;2023-02-02T11:08:55;8.23;;;3.33;;
7807;SDS011;3949;49.254;8.894;2023-02-02T11:16:41;9.33;;;3.50;;
7807;SDS011;3949;49.254;8.894;2023-02-02T11:21:44;7.47;;;3.20;;
7807;SDS011;3949;49.254;8.894;2023-02-02T11:24:23;8.43;;;3.20;;
7807;SDS011;3949;49.254;8.894;2023-02-02T11:26:55;7.43;;;3.10;;
7807;SDS011;3949;49.254;8.894;2023-02-02T11:29:26;13.57;;;4.00;;
7807;SDS011;3949;49.254;8.894;2023-02-02T11:31:52;11.47;;;3.37;;
7807;SDS011;3949;49.254;8.894;2023-02-02T11:34:19;8.30;;;3.67;;
7807;SDS011;3949;49.254;8.894;2023-02-02T11:36:59;15.13;;;4.33;;
7807;SDS011;3949;49.254;8.894;2023-02-02T11:39:26;11.40;;;3.53;;
7807;SDS011;3949;49.254;8.894;2023-02-02T11:41:57;13.63;;;4.40;;
7807;SDS011;3949;49.254;8.894;2023-02-02T11:44:24;7.70;;;3.00;;
7807;SDS011;3949;49.254;8.894;2023-02-02T11:46:51;8.23;;;4.30;;
7807;SDS011;3949;49.254;8.894;2023-02-02T11:49:17;11.00;;;4.00;;
7807;SDS011;3949;49.254;8.894;2023-02-02T11:52:00;11.50;;;4.33;;
7807;SDS011;3949;49.254;8.894;2023-02-02T11:54:29;10.20;;;3.70;;
7807;SDS011;3949;49.254;8.894;2023-02-02T11:56:58;9.17;;;3.50;;
7807;SDS011;3949;49.254;8.894;2023-02-02T11:59:32;7.10;;;3.53;;
7807;SDS011;3949;49.254;8.894;2023-02-02T12:04:38;10.63;;;3.10;;
7807;SDS011;3949;49.254;8.894;2023-02-02T12:07:17;7.63;;;2.87;;
7807;SDS011;3949;49.254;8.894;2023-02-02T12:09:44;7.13;;;2.67;;
7807;SDS011;3949;49.254;8.894;2023-02-02T12:20:04;4.87;;;2.53;;
7807;SDS011;3949;49.254;8.894;2023-02-02T12:22:44;8.30;;;2.50;;
7807;SDS011;3949;49.254;8.894;2023-02-02T12:25:35;7.07;;;2.43;;
7807;SDS011;3949;49.254;8.894;2023-02-02T12:38:43;4.37;;;2.37;;
7807;SDS011;3949;49.254;8.894;2023-02-02T12:51:26;5.67;;;2.50;;
7807;SDS011;3949;49.254;8.894;2023-02-02T12:56:26;8.90;;;2.40;;
7807;SDS011;3949;49.254;8.894;2023-02-02T13:01:45;8.50;;;2.73;;
7807;SDS011;3949;49.254;8.894;2023-02-02T13:04:33;7.40;;;2.50;;
7807;SDS011;3949;49.254;8.894;2023-02-02T13:09:39;7.43;;;2.60;;
7807;SDS011;3949;49.254;8.894;2023-02-02T13:12:09;6.57;;;2.80;;
7807;SDS011;3949;49.254;8.894;2023-02-02T13:14:37;7.37;;;2.93;;
7807;SDS011;3949;49.254;8.894;2023-02-02T13:17:08;6.27;;;2.40;;
7807;SDS011;3949;49.254;8.894;2023-02-02T13:22:03;5.50;;;2.27;;
7807;SDS011;3949;49.254;8.894;2023-02-02T13:24:32;6.27;;;2.33;;
7807;SDS011;3949;49.254;8.894;2023-02-02T13:27:00;7.47;;;2.63;;
7807;SDS011;3949;49.254;8.894;2023-02-02T13:32:38;7.97;;;2.83;;
7807;SDS011;3949;49.254;8.894;2023-02-02T13:35:26;6.27;;;2.40;;
7807;SDS011;3949;49.254;8.894;2023-02-02T13:37:57;8.43;;;2.40;;
7807;SDS011;3949;49.254;8.894;2023-02-02T13:40:37;5.20;;;2.43;;
7807;SDS011;3949;49.254;8.894;2023-02-02T13:48:38;6.57;;;2.40;;
7807;SDS011;3949;49.254;8.894;2023-02-02T13:51:16;9.37;;;4.70;;
7807;SDS011;3949;49.254;8.894;2023-02-02T13:59:04;8.57;;;3.10;;
7807;SDS011;3949;49.254;8.894;2023-02-02T14:01:33;7.83;;;2.77;;
7807;SDS011;3949;49.254;8.894;2023-02-02T14:03:59;7.53;;;2.40;;
7807;SDS011;3949;49.254;8.894;2023-02-02T14:06:26;3.67;;;2.00;;
7807;SDS011;3949;49.254;8.894;2023-02-02T14:08:59;4.03;;;2.07;;
7807;SDS011;3949;49.254;8.894;2023-02-02T14:11:33;4.97;;;2.10;;
7807;SDS011;3949;49.254;8.894;2023-02-02T14:14:13;6.37;;;2.13;;
7807;SDS011;3949;49.254;8.894;2023-02-02T14:19:48;7.33;;;2.43;;
7807;SDS011;3949;49.254;8.894;2023-02-02T14:24:41;4.63;;;2.47;;
7807;SDS011;3949;49.254;8.894;2023-02-02T14:29:56;6.93;;;2.53;;
7807;SDS011;3949;49.254;8.894;2023-02-02T14:34:49;8.33;;;2.97;;
7807;SDS011;3949;49.254;8.894;2023-02-02T14:50:40;8.33;;;3.27;;
7807;SDS011;3949;49.254;8.894;2023-02-02T14:55:53;7.53;;;2.83;;
7807;SDS011;3949;49.254;8.894;2023-02-02T14:58:38;6.77;;;2.97;;
7807;SDS011;3949;49.254;8.894;2023-02-02T15:06:36;6.83;;;3.03;;
7807;SDS011;3949;49.254;8.894;2023-02-02T15:17:03;7.30;;;2.73;;
7807;SDS011;3949;49.254;8.894;2023-02-02T15:19:34;7.00;;;2.53;;
7807;SDS011;3949;49.254;8.894;2023-02-02T15:22:14;8.70;;;2.80;;
7807;SDS011;3949;49.254;8.894;2023-02-02T15:24:46;7.13;;;2.97;;
7807;SDS011;3949;49.254;8.894;2023-02-02T15:27:15;4.77;;;2.73;;
7807;SDS011;3949;49.254;8.894;2023-02-02T15:29:43;7.20;;;2.57;;
7807;SDS011;3949;49.254;8.894;2023-02-02T15:32:14;5.97;;;2.97;;
7807;SDS011;3949;49.254;8.894;2023-02-02T15:34:42;6.80;;;3.20;;
7807;SDS011;3949;49.254;8.894;2023-02-02T15:37:18;5.47;;;3.00;;
7807;SDS011;3949;49.254;8.894;2023-02-02T15:39:45;8.87;;;2.77;;
7807;SDS011;3949;49.254;8.894;2023-02-02T15:42:23;8.30;;;3.30;;
7807;SDS011;3949;49.254;8.894;2023-02-02T15:47:53;7.30;;;3.57;;
7807;SDS011;3949;49.254;8.894;2023-02-02T15:50:20;7.43;;;3.10;;
7807;SDS011;3949;49.254;8.894;2023-02-02T15:52:47;7.33;;;3.63;;
7807;SDS011;3949;49.254;8.894;2023-02-02T15:55:21;7.57;;;3.33;;
7807;SDS011;3949;49.254;8.894;2023-02-02T15:57:47;9.30;;;3.57;;
7807;SDS011;3949;49.254;8.894;2023-02-02T16:00:33;7.17;;;3.10;;
7807;SDS011;3949;49.254;8.894;2023-02-02T16:07:54;6.57;;;3.10;;
7807;SDS011;3949;49.254;8.894;2023-02-02T16:10:21;6.60;;;2.60;;
7807;SDS011;3949;49.254;8.894;2023-02-02T16:12:47;6.17;;;2.43;;
7807;SDS011;3949;49.254;8.894;2023-02-02T16:15:20;6.37;;;2.77;;
7807;SDS011;3949;49.254;8.894;2023-02-02T16:17:57;10.63;;;2.90;;
7807;SDS011;3949;49.254;8.894;2023-02-02T16:20:23;6.50;;;2.40;;
7807;SDS011;3949;49.254;8.894;2023-02-02T16:22:49;7.03;;;2.67;;
7807;SDS011;3949;49.254;8.894;2023-02-02T16:25:17;5.73;;;2.60;;
7807;SDS011;3949;49.254;8.894;2023-02-02T16:27:44;4.00;;;2.23;;
7807;SDS011;3949;49.254;8.894;2023-02-02T16:30:13;9.30;;;2.50;;
7807;SDS011;3949;49.254;8.894;2023-02-02T16:32:45;5.80;;;2.33;;
7807;SDS011;3949;49.254;8.894;2023-02-02T16:38:21;7.50;;;2.77;;
7807;SDS011;3949;49.254;8.894;2023-02-02T16:40:48;6.30;;;2.40;;
7807;SDS011;3949;49.254;8.894;2023-02-02T16:43:17;5.20;;;2.33;;
7807;SDS011;3949;49.254;8.894;2023-02-02T16:45:47;6.97;;;2.53;;
7807;SDS011;3949;49.254;8.894;2023-02-02T16:48:19;9.23;;;2.70;;
7807;SDS011;3949;49.254;8.894;2023-02-02T16:50:55;5.73;;;2.43;;
7807;SDS011;3949;49.254;8.894;2023-02-02T16:53:27;4.57;;;2.10;;
7807;SDS011;3949;49.254;8.894;2023-02-02T16:55:53;4.27;;;2.30;;
7807;SDS011;3949;49.254;8.894;2023-02-02T16:58:21;6.17;;;2.47;;
7807;SDS011;3949;49.254;8.894;2023-02-02T17:01:02;7.73;;;2.67;;
7807;SDS011;3949;49.254;8.894;2023-02-02T17:03:33;5.40;;;2.27;;
7807;SDS011;3949;49.254;8.894;2023-02-02T17:06:00;5.73;;;2.50;;
7807;SDS011;3949;49.254;8.894;2023-02-02T17:08:36;8.57;;;2.60;;
7807;SDS011;3949;49.254;8.894;2023-02-02T17:15:58;4.13;;;2.10;;
7807;SDS011;3949;49.254;8.894;2023-02-02T17:18:24;4.37;;;2.27;;
7807;SDS011;3949;49.254;8.894;2023-02-02T17:20:51;5.53;;;2.23;;
7807;SDS011;3949;49.254;8.894;2023-02-02T17:23:21;3.67;;;2.27;;
7807;SDS011;3949;49.254;8.894;2023-02-02T17:25:48;6.80;;;3.43;;
7807;SDS011;3949;49.254;8.894;2023-02-02T17:28:18;3.60;;;2.10;;
7807;SDS011;3949;49.254;8.894;2023-02-02T17:30:45;3.63;;;2.30;;
7807;SDS011;3949;49.254;8.894;2023-02-02T17:33:15;4.20;;;2.10;;
7807;SDS011;3949;49.254;8.894;2023-02-02T17:35:45;3.50;;;2.63;;
7807;SDS011;3949;49.254;8.894;2023-02-02T17:38:11;6.73;;;2.30;;
7807;SDS011;3949;49.254;8.894;2023-02-02T17:40:37;4.60;;;2.37;;
7807;SDS011;3949;49.254;8.894;2023-02-02T17:43:04;7.70;;;2.57;;
7807;SDS011;3949;49.254;8.894;2023-02-02T17:45:31;3.20;;;2.13;;
7807;SDS011;3949;49.254;8.894;2023-02-02T17:47:57;3.40;;;2.17;;
7807;SDS011;3949;49.254;8.894;2023-02-02T17:50:24;3.60;;;2.03;;
7807;SDS011;3949;49.254;8.894;2023-02-02T17:52:50;3.17;;;2.10;;
7807;SDS011;3949;49.254;8.894;2023-02-02T17:55:26;3.77;;;2.57;;
7807;SDS011;3949;49.254;8.894;2023-02-02T17:57:53;4.67;;;2.60;;
7807;SDS011;3949;49.254;8.894;2023-02-02T18:00:20;4.20;;;1.90;;
7807;SDS011;3949;49.254;8.894;2023-02-02T18:02:47;4.10;;;2.13;;
7807;SDS011;3949;49.254;8.894;2023-02-02T18:05:14;3.77;;;2.07;;
7807;SDS011;3949;49.254;8.894;2023-02-02T18:07:40;4.40;;;2.50;;
7807;SDS011;3949;49.254;8.894;2023-02-02T18:10:08;3.20;;;2.23;;